Terminal Aerodrome Forecast
Issued by NWS Austin/San Antonio, TX

Home | Current Version | Previous Version | Text Only | Print | Product List | Glossary On
Versions: 1 2 3 4 5 6 7 8 9 10 11 12 13 14 15 16 17 18 19 20 21 22 23 24 25 26 27 28 29 30 31 32 33 34 35 36 37 38
000
FTUS44 KEWX 182324
TAFAUS
TAF
KAUS 182324Z 1900/2006 18007KT P6SM FEW060 FEW250
     FM191000 20008KT P6SM BKN012
     FM191500 19014KT P6SM FEW060 FEW250=

USA.gov is the U.S. government's official web portal to all federal, state and local government web resources and services.